sensor_id;sensor_type;location;lat;lon;timestamp;temperature;humidity
44990;DHT22;30723;51.206;3.326;2023-03-16T00:00:56;7.40;99.90
44990;DHT22;30723;51.206;3.326;2023-03-16T00:03:23;7.40;99.90
44990;DHT22;30723;51.206;3.326;2023-03-16T00:05:52;7.40;99.90
44990;DHT22;30723;51.206;3.326;2023-03-16T00:08:19;7.40;99.90
44990;DHT22;30723;51.206;3.326;2023-03-16T00:10:45;7.40;99.90
44990;DHT22;30723;51.206;3.326;2023-03-16T00:13:16;7.40;99.90
44990;DHT22;30723;51.206;3.326;2023-03-16T00:15:51;7.40;99.90
44990;DHT22;30723;51.206;3.326;2023-03-16T00:18:18;7.40;99.90
44990;DHT22;30723;51.206;3.326;2023-03-16T00:20:50;7.40;99.90
44990;DHT22;30723;51.206;3.326;2023-03-16T00:23:17;7.40;99.90
44990;DHT22;30723;51.206;3.326;2023-03-16T00:25:44;7.40;99.90
44990;DHT22;30723;51.206;3.326;2023-03-16T00:28:09;7.40;99.90
44990;DHT22;30723;51.206;3.326;2023-03-16T00:30:39;7.40;99.90
44990;DHT22;30723;51.206;3.326;2023-03-16T00:33:05;7.40;99.90
44990;DHT22;30723;51.206;3.326;2023-03-16T00:35:32;7.40;99.90
44990;DHT22;30723;51.206;3.326;2023-03-16T00:38:00;7.40;99.90
44990;DHT22;30723;51.206;3.326;2023-03-16T00:40:26;7.40;99.90
44990;DHT22;30723;51.206;3.326;2023-03-16T00:42:53;7.40;99.90
44990;DHT22;30723;51.206;3.326;2023-03-16T00:45:20;7.40;99.90
44990;DHT22;30723;51.206;3.326;2023-03-16T00:47:49;7.40;99.90
44990;DHT22;30723;51.206;3.326;2023-03-16T00:50:19;7.40;99.90
44990;DHT22;30723;51.206;3.326;2023-03-16T00:52:47;7.40;99.90
44990;DHT22;30723;51.206;3.326;2023-03-16T00:55:14;7.40;99.90
44990;DHT22;30723;51.206;3.326;2023-03-16T00:57:41;7.40;99.90
44990;DHT22;30723;51.206;3.326;2023-03-16T01:00:10;7.40;99.90
44990;DHT22;30723;51.206;3.326;2023-03-16T01:02:44;7.30;99.90
44990;DHT22;30723;51.206;3.326;2023-03-16T01:05:11;7.30;99.90
44990;DHT22;30723;51.206;3.326;2023-03-16T01:07:38;7.30;99.90
44990;DHT22;30723;51.206;3.326;2023-03-16T01:10:07;7.30;99.90
44990;DHT22;30723;51.206;3.326;2023-03-16T01:12:34;7.30;99.90
44990;DHT22;30723;51.206;3.326;2023-03-16T01:15:00;7.30;99.90
44990;DHT22;30723;51.206;3.326;2023-03-16T01:17:26;7.30;99.90
44990;DHT22;30723;51.206;3.326;2023-03-16T01:19:52;7.20;99.90
44990;DHT22;30723;51.206;3.326;2023-03-16T01:22:18;7.20;99.90
44990;DHT22;30723;51.206;3.326;2023-03-16T01:24:44;7.10;99.90
44990;DHT22;30723;51.206;3.326;2023-03-16T01:27:12;7.20;99.90
44990;DHT22;30723;51.206;3.326;2023-03-16T01:29:38;7.20;99.90
44990;DHT22;30723;51.206;3.326;2023-03-16T01:32:05;7.20;99.90
44990;DHT22;30723;51.206;3.326;2023-03-16T01:34:33;7.20;99.90
44990;DHT22;30723;51.206;3.326;2023-03-16T01:37:00;7.20;99.90
44990;DHT22;30723;51.206;3.326;2023-03-16T01:39:27;7.20;99.90
44990;DHT22;30723;51.206;3.326;2023-03-16T01:41:54;7.20;99.90
44990;DHT22;30723;51.206;3.326;2023-03-16T01:44:23;7.20;99.90
44990;DHT22;30723;51.206;3.326;2023-03-16T01:46:53;7.20;99.90
44990;DHT22;30723;51.206;3.326;2023-03-16T01:49:35;7.20;99.90
44990;DHT22;30723;51.206;3.326;2023-03-16T01:52:11;7.20;99.90
44990;DHT22;30723;51.206;3.326;2023-03-16T01:54:46;7.20;99.90
44990;DHT22;30723;51.206;3.326;2023-03-16T02:00:03;7.20;99.90
44990;DHT22;30723;51.206;3.326;2023-03-16T02:02:46;7.20;99.90
44990;DHT22;30723;51.206;3.326;2023-03-16T02:05:22;7.10;99.90
44990;DHT22;30723;51.206;3.326;2023-03-16T02:07:51;7.10;99.90
44990;DHT22;30723;51.206;3.326;2023-03-16T02:10:25;7.00;99.90
44990;DHT22;30723;51.206;3.326;2023-03-16T02:12:53;7.00;99.90
44990;DHT22;30723;51.206;3.326;2023-03-16T02:15:20;7.00;99.90
44990;DHT22;30723;51.206;3.326;2023-03-16T02:17:48;7.10;99.90
44990;DHT22;30723;51.206;3.326;2023-03-16T02:20:46;7.00;99.90
44990;DHT22;30723;51.206;3.326;2023-03-16T02:23:18;7.00;99.90
44990;DHT22;30723;51.206;3.326;2023-03-16T02:31:41;7.00;99.90
44990;DHT22;30723;51.206;3.326;2023-03-16T02:34:10;7.10;99.90
44990;DHT22;30723;51.206;3.326;2023-03-16T02:36:37;7.00;99.90
44990;DHT22;30723;51.206;3.326;2023-03-16T02:39:04;7.00;99.90
44990;DHT22;30723;51.206;3.326;2023-03-16T02:41:30;7.00;99.90
44990;DHT22;30723;51.206;3.326;2023-03-16T02:44:41;7.00;99.90
44990;DHT22;30723;51.206;3.326;2023-03-16T02:49:54;7.00;99.90
44990;DHT22;30723;51.206;3.326;2023-03-16T02:52:21;7.00;99.90
44990;DHT22;30723;51.206;3.326;2023-03-16T02:54:47;7.00;99.90
44990;DHT22;30723;51.206;3.326;2023-03-16T02:57:13;7.00;99.90
44990;DHT22;30723;51.206;3.326;2023-03-16T02:59:39;6.90;99.90
44990;DHT22;30723;51.206;3.326;2023-03-16T03:02:06;7.00;99.90
44990;DHT22;30723;51.206;3.326;2023-03-16T03:04:33;7.00;99.90
44990;DHT22;30723;51.206;3.326;2023-03-16T03:07:00;7.00;99.90
44990;DHT22;30723;51.206;3.326;2023-03-16T03:09:31;7.00;99.90
44990;DHT22;30723;51.206;3.326;2023-03-16T03:11:58;6.90;99.90
44990;DHT22;30723;51.206;3.326;2023-03-16T03:14:24;7.00;99.90
44990;DHT22;30723;51.206;3.326;2023-03-16T03:16:52;7.00;99.90
44990;DHT22;30723;51.206;3.326;2023-03-16T03:19:18;7.00;99.90
44990;DHT22;30723;51.206;3.326;2023-03-16T03:21:46;7.00;99.90
44990;DHT22;30723;51.206;3.326;2023-03-16T03:24:11;7.00;99.90
44990;DHT22;30723;51.206;3.326;2023-03-16T03:26:38;7.00;99.90
44990;DHT22;30723;51.206;3.326;2023-03-16T03:29:05;7.00;99.90
44990;DHT22;30723;51.206;3.326;2023-03-16T03:31:32;7.00;99.90
44990;DHT22;30723;51.206;3.326;2023-03-16T03:33:58;7.00;99.90
44990;DHT22;30723;51.206;3.326;2023-03-16T03:36:25;7.00;99.90
44990;DHT22;30723;51.206;3.326;2023-03-16T03:38:51;7.00;99.90
44990;DHT22;30723;51.206;3.326;2023-03-16T03:41:20;7.00;99.90
44990;DHT22;30723;51.206;3.326;2023-03-16T03:43:47;7.10;99.90
44990;DHT22;30723;51.206;3.326;2023-03-16T03:46:13;7.10;99.90
44990;DHT22;30723;51.206;3.326;2023-03-16T03:48:39;7.10;99.90
44990;DHT22;30723;51.206;3.326;2023-03-16T03:51:06;7.10;99.90
44990;DHT22;30723;51.206;3.326;2023-03-16T03:53:33;7.10;99.90
44990;DHT22;30723;51.206;3.326;2023-03-16T03:55:58;7.10;99.90
44990;DHT22;30723;51.206;3.326;2023-03-16T03:58:25;7.10;99.90
44990;DHT22;30723;51.206;3.326;2023-03-16T04:00:52;7.10;99.90
44990;DHT22;30723;51.206;3.326;2023-03-16T04:03:17;7.00;99.90
44990;DHT22;30723;51.206;3.326;2023-03-16T04:05:44;7.10;99.90
44990;DHT22;30723;51.206;3.326;2023-03-16T04:08:10;7.10;99.90
44990;DHT22;30723;51.206;3.326;2023-03-16T04:10:37;7.00;99.90
44990;DHT22;30723;51.206;3.326;2023-03-16T04:13:04;7.00;99.90
44990;DHT22;30723;51.206;3.326;2023-03-16T04:15:31;7.10;99.90
44990;DHT22;30723;51.206;3.326;2023-03-16T04:17:58;7.10;99.90
44990;DHT22;30723;51.206;3.326;2023-03-16T04:20:24;7.00;99.90
44990;DHT22;30723;51.206;3.326;2023-03-16T04:22:50;7.00;99.90
44990;DHT22;30723;51.206;3.326;2023-03-16T04:25:23;7.00;99.90
44990;DHT22;30723;51.206;3.326;2023-03-16T04:27:51;7.00;99.90
44990;DHT22;30723;51.206;3.326;2023-03-16T04:30:18;6.90;99.90
44990;DHT22;30723;51.206;3.326;2023-03-16T04:32:43;6.90;99.90
44990;DHT22;30723;51.206;3.326;2023-03-16T04:35:09;7.00;99.90
44990;DHT22;30723;51.206;3.326;2023-03-16T04:37:35;7.00;99.90
44990;DHT22;30723;51.206;3.326;2023-03-16T04:40:01;7.00;99.90
44990;DHT22;30723;51.206;3.326;2023-03-16T04:42:40;7.10;99.90
44990;DHT22;30723;51.206;3.326;2023-03-16T04:45:06;7.10;99.90
44990;DHT22;30723;51.206;3.326;2023-03-16T04:47:34;7.20;99.90
44990;DHT22;30723;51.206;3.326;2023-03-16T04:50:03;7.20;99.90
44990;DHT22;30723;51.206;3.326;2023-03-16T04:52:31;7.20;99.90
44990;DHT22;30723;51.206;3.326;2023-03-16T04:54:57;7.30;99.90
44990;DHT22;30723;51.206;3.326;2023-03-16T04:57:24;7.40;99.90
44990;DHT22;30723;51.206;3.326;2023-03-16T04:59:51;7.40;99.90
44990;DHT22;30723;51.206;3.326;2023-03-16T05:02:17;7.40;99.90
44990;DHT22;30723;51.206;3.326;2023-03-16T05:04:44;7.40;99.90
44990;DHT22;30723;51.206;3.326;2023-03-16T05:07:10;7.40;99.90
44990;DHT22;30723;51.206;3.326;2023-03-16T05:09:38;7.50;99.90
44990;DHT22;30723;51.206;3.326;2023-03-16T05:12:04;7.60;99.90
44990;DHT22;30723;51.206;3.326;2023-03-16T05:14:30;7.60;99.90
44990;DHT22;30723;51.206;3.326;2023-03-16T05:16:55;7.60;99.90
44990;DHT22;30723;51.206;3.326;2023-03-16T05:19:21;7.60;99.90
44990;DHT22;30723;51.206;3.326;2023-03-16T05:21:48;7.60;99.90
44990;DHT22;30723;51.206;3.326;2023-03-16T05:24:14;7.60;99.90
44990;DHT22;30723;51.206;3.326;2023-03-16T05:26:41;7.70;99.90
44990;DHT22;30723;51.206;3.326;2023-03-16T05:29:08;7.70;99.90
44990;DHT22;30723;51.206;3.326;2023-03-16T05:31:34;7.70;99.90
44990;DHT22;30723;51.206;3.326;2023-03-16T05:34:03;7.70;99.90
44990;DHT22;30723;51.206;3.326;2023-03-16T05:36:30;7.70;99.90
44990;DHT22;30723;51.206;3.326;2023-03-16T05:38:56;7.70;99.90
44990;DHT22;30723;51.206;3.326;2023-03-16T05:41:24;7.70;99.90
44990;DHT22;30723;51.206;3.326;2023-03-16T05:43:50;7.70;99.90
44990;DHT22;30723;51.206;3.326;2023-03-16T05:46:16;7.70;99.90
44990;DHT22;30723;51.206;3.326;2023-03-16T05:48:42;7.70;99.90
44990;DHT22;30723;51.206;3.326;2023-03-16T05:51:08;7.70;99.90
44990;DHT22;30723;51.206;3.326;2023-03-16T05:53:35;7.70;99.90
44990;DHT22;30723;51.206;3.326;2023-03-16T05:56:01;7.70;99.90
44990;DHT22;30723;51.206;3.326;2023-03-16T05:58:28;7.70;99.90
44990;DHT22;30723;51.206;3.326;2023-03-16T06:00:54;7.70;99.90
44990;DHT22;30723;51.206;3.326;2023-03-16T06:03:24;7.70;99.90
44990;DHT22;30723;51.206;3.326;2023-03-16T06:05:50;7.80;99.90
44990;DHT22;30723;51.206;3.326;2023-03-16T06:08:17;7.80;99.90
44990;DHT22;30723;51.206;3.326;2023-03-16T06:10:45;7.80;99.90
44990;DHT22;30723;51.206;3.326;2023-03-16T06:13:11;7.90;99.90
44990;DHT22;30723;51.206;3.326;2023-03-16T06:15:38;7.80;99.90
44990;DHT22;30723;51.206;3.326;2023-03-16T06:18:04;7.80;99.90
44990;DHT22;30723;51.206;3.326;2023-03-16T06:20:31;7.80;99.90
44990;DHT22;30723;51.206;3.326;2023-03-16T06:22:57;7.80;99.90
44990;DHT22;30723;51.206;3.326;2023-03-16T06:25:23;7.80;99.90
44990;DHT22;30723;51.206;3.326;2023-03-16T06:27:49;7.90;99.90
44990;DHT22;30723;51.206;3.326;2023-03-16T06:30:16;7.90;99.90
44990;DHT22;30723;51.206;3.326;2023-03-16T06:32:43;8.00;99.90
44990;DHT22;30723;51.206;3.326;2023-03-16T06:35:11;7.90;99.90
44990;DHT22;30723;51.206;3.326;2023-03-16T06:37:38;7.90;99.90
44990;DHT22;30723;51.206;3.326;2023-03-16T06:40:05;7.90;99.90
44990;DHT22;30723;51.206;3.326;2023-03-16T06:42:30;7.90;99.90
44990;DHT22;30723;51.206;3.326;2023-03-16T06:44:57;8.00;99.90
44990;DHT22;30723;51.206;3.326;2023-03-16T06:47:24;8.10;99.90
44990;DHT22;30723;51.206;3.326;2023-03-16T06:49:51;8.10;99.90
44990;DHT22;30723;51.206;3.326;2023-03-16T06:52:20;8.10;99.90
44990;DHT22;30723;51.206;3.326;2023-03-16T06:54:46;8.20;99.90
44990;DHT22;30723;51.206;3.326;2023-03-16T06:57:12;8.20;99.90
44990;DHT22;30723;51.206;3.326;2023-03-16T06:59:38;8.30;99.90
44990;DHT22;30723;51.206;3.326;2023-03-16T07:02:05;8.40;99.90
44990;DHT22;30723;51.206;3.326;2023-03-16T07:04:32;8.50;99.90
44990;DHT22;30723;51.206;3.326;2023-03-16T07:06:59;8.50;99.90
44990;DHT22;30723;51.206;3.326;2023-03-16T07:09:27;8.50;99.90
44990;DHT22;30723;51.206;3.326;2023-03-16T07:11:53;8.60;99.90
44990;DHT22;30723;51.206;3.326;2023-03-16T07:14:20;8.60;99.90
44990;DHT22;30723;51.206;3.326;2023-03-16T07:16:47;8.60;99.90
44990;DHT22;30723;51.206;3.326;2023-03-16T07:19:13;8.70;99.90
44990;DHT22;30723;51.206;3.326;2023-03-16T07:21:40;8.70;99.90
44990;DHT22;30723;51.206;3.326;2023-03-16T07:24:09;8.80;99.90
44990;DHT22;30723;51.206;3.326;2023-03-16T07:26:35;8.80;99.90
44990;DHT22;30723;51.206;3.326;2023-03-16T07:29:02;8.80;99.90
44990;DHT22;30723;51.206;3.326;2023-03-16T07:31:31;8.90;99.90
44990;DHT22;30723;51.206;3.326;2023-03-16T07:33:58;9.00;99.90
44990;DHT22;30723;51.206;3.326;2023-03-16T07:36:25;9.00;99.90
44990;DHT22;30723;51.206;3.326;2023-03-16T07:38:51;9.10;99.90
44990;DHT22;30723;51.206;3.326;2023-03-16T07:41:17;9.00;99.90
44990;DHT22;30723;51.206;3.326;2023-03-16T07:43:43;9.10;99.90
44990;DHT22;30723;51.206;3.326;2023-03-16T07:46:29;9.20;99.90
44990;DHT22;30723;51.206;3.326;2023-03-16T07:48:58;9.30;99.90
44990;DHT22;30723;51.206;3.326;2023-03-16T07:51:24;9.30;99.90
44990;DHT22;30723;51.206;3.326;2023-03-16T07:53:51;9.30;99.90
44990;DHT22;30723;51.206;3.326;2023-03-16T07:56:19;9.30;99.90
44990;DHT22;30723;51.206;3.326;2023-03-16T07:58:46;9.40;99.90
44990;DHT22;30723;51.206;3.326;2023-03-16T08:01:11;9.40;99.90
44990;DHT22;30723;51.206;3.326;2023-03-16T08:03:37;9.40;99.90
44990;DHT22;30723;51.206;3.326;2023-03-16T08:06:03;9.50;99.90
44990;DHT22;30723;51.206;3.326;2023-03-16T08:08:31;9.60;99.90
44990;DHT22;30723;51.206;3.326;2023-03-16T08:10:56;9.60;99.90
44990;DHT22;30723;51.206;3.326;2023-03-16T08:13:22;9.60;99.90
44990;DHT22;30723;51.206;3.326;2023-03-16T08:15:49;9.60;99.90
44990;DHT22;30723;51.206;3.326;2023-03-16T08:18:23;9.60;99.90
44990;DHT22;30723;51.206;3.326;2023-03-16T08:20:50;9.60;99.90
44990;DHT22;30723;51.206;3.326;2023-03-16T08:23:17;9.60;99.90
44990;DHT22;30723;51.206;3.326;2023-03-16T08:25:42;9.70;99.90
44990;DHT22;30723;51.206;3.326;2023-03-16T08:28:10;9.70;99.90
44990;DHT22;30723;51.206;3.326;2023-03-16T08:30:44;9.80;99.90
44990;DHT22;30723;51.206;3.326;2023-03-16T08:33:12;9.90;99.90
44990;DHT22;30723;51.206;3.326;2023-03-16T08:35:41;9.90;99.90
44990;DHT22;30723;51.206;3.326;2023-03-16T08:38:10;9.90;99.90
44990;DHT22;30723;51.206;3.326;2023-03-16T08:40:41;9.80;99.90
44990;DHT22;30723;51.206;3.326;2023-03-16T08:43:14;9.80;99.90
44990;DHT22;30723;51.206;3.326;2023-03-16T08:45:39;9.80;99.90
44990;DHT22;30723;51.206;3.326;2023-03-16T08:48:06;9.80;99.90
44990;DHT22;30723;51.206;3.326;2023-03-16T08:50:33;9.80;99.90
44990;DHT22;30723;51.206;3.326;2023-03-16T08:52:59;9.80;99.90
44990;DHT22;30723;51.206;3.326;2023-03-16T08:55:26;9.90;99.90
44990;DHT22;30723;51.206;3.326;2023-03-16T08:57:51;9.90;99.90
44990;DHT22;30723;51.206;3.326;2023-03-16T09:00:19;10.00;99.90
44990;DHT22;30723;51.206;3.326;2023-03-16T09:02:45;10.00;99.90
44990;DHT22;30723;51.206;3.326;2023-03-16T09:05:12;10.10;99.90
44990;DHT22;30723;51.206;3.326;2023-03-16T09:07:39;10.00;99.90
44990;DHT22;30723;51.206;3.326;2023-03-16T09:10:08;9.90;99.90
44990;DHT22;30723;51.206;3.326;2023-03-16T09:12:38;10.00;99.90
44990;DHT22;30723;51.206;3.326;2023-03-16T09:15:08;9.90;99.90
44990;DHT22;30723;51.206;3.326;2023-03-16T09:17:36;9.90;99.90
44990;DHT22;30723;51.206;3.326;2023-03-16T09:20:03;10.00;99.90
44990;DHT22;30723;51.206;3.326;2023-03-16T09:22:30;10.10;99.90
44990;DHT22;30723;51.206;3.326;2023-03-16T09:24:57;10.10;99.90
44990;DHT22;30723;51.206;3.326;2023-03-16T09:27:23;10.20;99.90
44990;DHT22;30723;51.206;3.326;2023-03-16T09:29:50;10.20;99.90
44990;DHT22;30723;51.206;3.326;2023-03-16T09:32:21;10.30;99.90
44990;DHT22;30723;51.206;3.326;2023-03-16T09:34:48;10.40;99.90
44990;DHT22;30723;51.206;3.326;2023-03-16T09:37:14;10.50;99.90
44990;DHT22;30723;51.206;3.326;2023-03-16T09:39:42;10.70;99.90
44990;DHT22;30723;51.206;3.326;2023-03-16T09:45:07;10.90;99.90
44990;DHT22;30723;51.206;3.326;2023-03-16T09:47:38;10.90;99.90
44990;DHT22;30723;51.206;3.326;2023-03-16T09:50:12;11.00;99.90
44990;DHT22;30723;51.206;3.326;2023-03-16T09:55:38;11.30;99.90
44990;DHT22;30723;51.206;3.326;2023-03-16T09:58:10;11.30;99.90
44990;DHT22;30723;51.206;3.326;2023-03-16T10:05:57;11.60;99.90
44990;DHT22;30723;51.206;3.326;2023-03-16T10:08:32;11.60;99.90
44990;DHT22;30723;51.206;3.326;2023-03-16T10:16:30;11.60;99.90
44990;DHT22;30723;51.206;3.326;2023-03-16T10:19:07;11.80;99.90
44990;DHT22;30723;51.206;3.326;2023-03-16T10:21:39;11.90;99.90
44990;DHT22;30723;51.206;3.326;2023-03-16T10:27:23;12.20;99.90
44990;DHT22;30723;51.206;3.326;2023-03-16T10:29:52;12.40;99.90
44990;DHT22;30723;51.206;3.326;2023-03-16T10:32:19;12.50;99.90
44990;DHT22;30723;51.206;3.326;2023-03-16T10:37:51;13.00;99.90
44990;DHT22;30723;51.206;3.326;2023-03-16T10:40:17;13.40;99.90
44990;DHT22;30723;51.206;3.326;2023-03-16T10:42:46;13.70;99.90
44990;DHT22;30723;51.206;3.326;2023-03-16T10:45:24;13.60;99.90
44990;DHT22;30723;51.206;3.326;2023-03-16T10:47:52;13.60;99.90
44990;DHT22;30723;51.206;3.326;2023-03-16T10:50:24;13.40;99.90
44990;DHT22;30723;51.206;3.326;2023-03-16T10:52:52;13.40;99.90
44990;DHT22;30723;51.206;3.326;2023-03-16T10:55:27;13.50;99.90
44990;DHT22;30723;51.206;3.326;2023-03-16T10:57:58;13.70;99.90
44990;DHT22;30723;51.206;3.326;2023-03-16T11:00:35;13.80;99.90
44990;DHT22;30723;51.206;3.326;2023-03-16T11:03:18;13.90;99.90
44990;DHT22;30723;51.206;3.326;2023-03-16T11:05:55;14.00;99.90
44990;DHT22;30723;51.206;3.326;2023-03-16T11:08:26;14.20;99.90
44990;DHT22;30723;51.206;3.326;2023-03-16T11:11:08;14.50;99.90
44990;DHT22;30723;51.206;3.326;2023-03-16T11:13:37;14.70;99.90
44990;DHT22;30723;51.206;3.326;2023-03-16T11:16:23;14.90;99.90
44990;DHT22;30723;51.206;3.326;2023-03-16T11:18:56;15.20;99.90
44990;DHT22;30723;51.206;3.326;2023-03-16T11:21:46;16.20;99.90
44990;DHT22;30723;51.206;3.326;2023-03-16T11:32:50;18.20;99.70
44990;DHT22;30723;51.206;3.326;2023-03-16T11:35:21;19.00;96.40
44990;DHT22;30723;51.206;3.326;2023-03-16T11:38:14;19.00;95.60
44990;DHT22;30723;51.206;3.326;2023-03-16T11:43:50;18.90;93.50
44990;DHT22;30723;51.206;3.326;2023-03-16T11:46:35;19.00;93.80
44990;DHT22;30723;51.206;3.326;2023-03-16T11:57:27;18.50;92.40
44990;DHT22;30723;51.206;3.326;2023-03-16T12:08:48;19.40;90.80
44990;DHT22;30723;51.206;3.326;2023-03-16T12:22:34;19.70;89.50
44990;DHT22;30723;51.206;3.326;2023-03-16T12:25:03;19.70;90.50
44990;DHT22;30723;51.206;3.326;2023-03-16T12:27:38;20.00;89.80
44990;DHT22;30723;51.206;3.326;2023-03-16T12:30:22;20.40;89.10
44990;DHT22;30723;51.206;3.326;2023-03-16T12:35:55;20.30;88.00
44990;DHT22;30723;51.206;3.326;2023-03-16T12:38:50;20.20;87.10
44990;DHT22;30723;51.206;3.326;2023-03-16T12:41:43;19.70;86.30
44990;DHT22;30723;51.206;3.326;2023-03-16T12:44:24;19.50;87.10
44990;DHT22;30723;51.206;3.326;2023-03-16T12:49:31;19.20;89.00
44990;DHT22;30723;51.206;3.326;2023-03-16T12:51:58;19.70;89.30
44990;DHT22;30723;51.206;3.326;2023-03-16T12:54:25;19.90;88.60
44990;DHT22;30723;51.206;3.326;2023-03-16T12:56:52;20.00;87.00
44990;DHT22;30723;51.206;3.326;2023-03-16T12:59:24;20.20;87.00
44990;DHT22;30723;51.206;3.326;2023-03-16T13:02:02;20.00;87.70
44990;DHT22;30723;51.206;3.326;2023-03-16T13:05:02;19.90;88.40
44990;DHT22;30723;51.206;3.326;2023-03-16T13:08:02;20.30;90.00
44990;DHT22;30723;51.206;3.326;2023-03-16T13:10:31;20.50;85.80
44990;DHT22;30723;51.206;3.326;2023-03-16T13:15:36;20.20;86.30
44990;DHT22;30723;51.206;3.326;2023-03-16T13:18:21;20.60;87.80
44990;DHT22;30723;51.206;3.326;2023-03-16T13:21:00;20.80;86.30
44990;DHT22;30723;51.206;3.326;2023-03-16T13:23:58;20.70;85.50
44990;DHT22;30723;51.206;3.326;2023-03-16T13:26:45;20.70;86.50
44990;DHT22;30723;51.206;3.326;2023-03-16T13:29:24;20.70;85.70
44990;DHT22;30723;51.206;3.326;2023-03-16T13:31:55;20.70;84.50
44990;DHT22;30723;51.206;3.326;2023-03-16T13:34:28;20.70;85.20
44990;DHT22;30723;51.206;3.326;2023-03-16T13:36:57;20.80;85.30
44990;DHT22;30723;51.206;3.326;2023-03-16T13:39:50;20.60;84.40
44990;DHT22;30723;51.206;3.326;2023-03-16T13:42:20;20.80;85.80
44990;DHT22;30723;51.206;3.326;2023-03-16T13:44:47;20.90;85.50
44990;DHT22;30723;51.206;3.326;2023-03-16T13:47:18;20.90;85.60
44990;DHT22;30723;51.206;3.326;2023-03-16T13:49:57;20.60;84.60
44990;DHT22;30723;51.206;3.326;2023-03-16T13:52:34;20.40;85.70
44990;DHT22;30723;51.206;3.326;2023-03-16T13:55:05;20.00;86.30
44990;DHT22;30723;51.206;3.326;2023-03-16T13:57:36;19.90;87.60
44990;DHT22;30723;51.206;3.326;2023-03-16T14:00:27;19.90;87.80
44990;DHT22;30723;51.206;3.326;2023-03-16T14:03:02;20.10;86.90
44990;DHT22;30723;51.206;3.326;2023-03-16T14:05:33;20.10;88.60
44990;DHT22;30723;51.206;3.326;2023-03-16T14:08:00;19.90;87.00
44990;DHT22;30723;51.206;3.326;2023-03-16T14:10:34;19.70;88.20
44990;DHT22;30723;51.206;3.326;2023-03-16T14:16:12;19.60;89.20
44990;DHT22;30723;51.206;3.326;2023-03-16T14:18:47;19.70;89.00
44990;DHT22;30723;51.206;3.326;2023-03-16T14:21:36;20.20;89.50
44990;DHT22;30723;51.206;3.326;2023-03-16T14:24:15;20.50;86.00
44990;DHT22;30723;51.206;3.326;2023-03-16T14:26:47;20.70;87.70
44990;DHT22;30723;51.206;3.326;2023-03-16T14:29:29;20.50;85.20
44990;DHT22;30723;51.206;3.326;2023-03-16T14:31:57;20.30;84.90
44990;DHT22;30723;51.206;3.326;2023-03-16T14:34:35;19.90;87.00
44990;DHT22;30723;51.206;3.326;2023-03-16T14:37:13;19.70;87.10
44990;DHT22;30723;51.206;3.326;2023-03-16T14:39:39;19.50;88.70
44990;DHT22;30723;51.206;3.326;2023-03-16T14:44:40;19.30;89.50
44990;DHT22;30723;51.206;3.326;2023-03-16T14:47:07;19.60;87.70
44990;DHT22;30723;51.206;3.326;2023-03-16T14:49:35;19.60;87.10
44990;DHT22;30723;51.206;3.326;2023-03-16T14:52:06;19.50;86.60
44990;DHT22;30723;51.206;3.326;2023-03-16T14:54:33;19.40;87.30
44990;DHT22;30723;51.206;3.326;2023-03-16T14:57:03;19.20;86.60
44990;DHT22;30723;51.206;3.326;2023-03-16T14:59:32;19.00;89.00
44990;DHT22;30723;51.206;3.326;2023-03-16T15:01:59;19.00;88.80
44990;DHT22;30723;51.206;3.326;2023-03-16T15:04:33;19.10;88.20
44990;DHT22;30723;51.206;3.326;2023-03-16T15:07:00;19.10;87.20
44990;DHT22;30723;51.206;3.326;2023-03-16T15:09:35;19.00;88.10
44990;DHT22;30723;51.206;3.326;2023-03-16T15:12:02;19.30;88.70
44990;DHT22;30723;51.206;3.326;2023-03-16T15:14:29;19.50;85.00
44990;DHT22;30723;51.206;3.326;2023-03-16T15:17:13;19.40;86.30
44990;DHT22;30723;51.206;3.326;2023-03-16T15:19:39;19.20;85.40
44990;DHT22;30723;51.206;3.326;2023-03-16T15:22:05;19.10;86.90
44990;DHT22;30723;51.206;3.326;2023-03-16T15:24:31;19.10;89.00
44990;DHT22;30723;51.206;3.326;2023-03-16T15:26:58;19.00;88.10
44990;DHT22;30723;51.206;3.326;2023-03-16T15:29:24;18.70;88.50
44990;DHT22;30723;51.206;3.326;2023-03-16T15:31:49;18.30;90.50
44990;DHT22;30723;51.206;3.326;2023-03-16T15:34:15;17.90;91.00
44990;DHT22;30723;51.206;3.326;2023-03-16T15:36:41;17.20;91.10
44990;DHT22;30723;51.206;3.326;2023-03-16T15:39:21;17.00;92.20
44990;DHT22;30723;51.206;3.326;2023-03-16T15:41:48;16.80;92.90
44990;DHT22;30723;51.206;3.326;2023-03-16T15:44:14;16.50;93.00
44990;DHT22;30723;51.206;3.326;2023-03-16T15:46:40;16.10;93.90
44990;DHT22;30723;51.206;3.326;2023-03-16T15:49:07;15.90;94.80
44990;DHT22;30723;51.206;3.326;2023-03-16T15:51:33;15.60;94.60
44990;DHT22;30723;51.206;3.326;2023-03-16T15:54:01;15.30;95.40
44990;DHT22;30723;51.206;3.326;2023-03-16T15:56:30;15.30;95.80
44990;DHT22;30723;51.206;3.326;2023-03-16T15:59:01;15.20;96.10
44990;DHT22;30723;51.206;3.326;2023-03-16T16:01:29;15.20;96.80
44990;DHT22;30723;51.206;3.326;2023-03-16T16:03:59;15.20;96.90
44990;DHT22;30723;51.206;3.326;2023-03-16T16:06:26;15.20;97.50
44990;DHT22;30723;51.206;3.326;2023-03-16T16:08:53;15.20;98.10
44990;DHT22;30723;51.206;3.326;2023-03-16T16:11:26;15.20;98.40
44990;DHT22;30723;51.206;3.326;2023-03-16T16:13:56;15.20;96.60
44990;DHT22;30723;51.206;3.326;2023-03-16T16:16:26;15.20;97.30
44990;DHT22;30723;51.206;3.326;2023-03-16T16:18:56;15.20;97.80
44990;DHT22;30723;51.206;3.326;2023-03-16T16:21:24;15.10;98.00
44990;DHT22;30723;51.206;3.326;2023-03-16T16:23:52;15.10;98.40
44990;DHT22;30723;51.206;3.326;2023-03-16T16:29:01;15.00;98.40
44990;DHT22;30723;51.206;3.326;2023-03-16T16:31:31;15.00;99.30
44990;DHT22;30723;51.206;3.326;2023-03-16T16:33:58;14.90;99.10
44990;DHT22;30723;51.206;3.326;2023-03-16T16:36:25;14.80;99.70
44990;DHT22;30723;51.206;3.326;2023-03-16T16:38:51;14.70;99.90
44990;DHT22;30723;51.206;3.326;2023-03-16T16:41:29;14.60;99.90
44990;DHT22;30723;51.206;3.326;2023-03-16T16:43:57;14.50;99.90
44990;DHT22;30723;51.206;3.326;2023-03-16T16:46:26;14.40;99.90
44990;DHT22;30723;51.206;3.326;2023-03-16T16:49:14;14.30;99.90
44990;DHT22;30723;51.206;3.326;2023-03-16T16:51:43;14.20;99.90
44990;DHT22;30723;51.206;3.326;2023-03-16T16:54:21;14.10;99.90
44990;DHT22;30723;51.206;3.326;2023-03-16T16:56:49;14.00;99.90
44990;DHT22;30723;51.206;3.326;2023-03-16T16:59:25;13.90;99.90
44990;DHT22;30723;51.206;3.326;2023-03-16T17:01:53;13.80;99.90
44990;DHT22;30723;51.206;3.326;2023-03-16T17:04:22;13.80;99.90
44990;DHT22;30723;51.206;3.326;2023-03-16T17:06:51;13.70;99.90
44990;DHT22;30723;51.206;3.326;2023-03-16T17:09:22;13.70;99.90
44990;DHT22;30723;51.206;3.326;2023-03-16T17:11:48;13.70;99.90
44990;DHT22;30723;51.206;3.326;2023-03-16T17:14:18;13.60;99.90
44990;DHT22;30723;51.206;3.326;2023-03-16T17:16:45;13.50;99.90
44990;DHT22;30723;51.206;3.326;2023-03-16T17:21:48;13.50;99.90
44990;DHT22;30723;51.206;3.326;2023-03-16T17:24:15;13.40;99.90
44990;DHT22;30723;51.206;3.326;2023-03-16T17:26:44;13.40;99.90
44990;DHT22;30723;51.206;3.326;2023-03-16T17:29:18;13.40;99.90